Time,TemperatureF,DewpointF,PressureIn,WindDirection,WindDirectionDegrees,WindSpeedMPH,WindSpeedGustMPH,Humidity,HourlyPrecipIn,Conditions,Clouds,dailyrainin,SoftwareType,DateUTC
2013-06-05 09:02:00,32.0,32.0,-100.00,North,0,0.0,0.0,0,0.00,,,-99.99,,2013-06-05 15:02:00,
2013-06-05 09:12:00,45.0,30.0,-100.00,SSW,208,11.0,14.0,55,0.00,,,-99.99,,2013-06-05 15:12:00,
2013-06-05 09:22:00,45.0,31.0,-100.00,SW,229,10.0,13.0,56,0.00,,,-99.99,,2013-06-05 15:22:00,
2013-06-05 09:33:00,46.0,32.0,-100.00,SW,233,7.0,12.0,58,0.00,,,-99.99,,2013-06-05 15:33:00,
2013-06-05 09:42:00,47.0,31.0,-100.00,SW,234,13.0,16.0,54,0.00,,,-99.99,,2013-06-05 15:42:00,
2013-06-05 09:53:00,48.0,31.0,-100.00,SW,232,8.0,12.0,52,0.00,,,-99.99,,2013-06-05 15:53:00,
2013-06-05 10:03:00,47.0,30.0,-100.00,SW,232,12.0,17.0,51,0.00,,,-99.99,,2013-06-05 16:03:00,
2013-06-05 10:12:00,48.0,31.0,-100.00,SW,220,11.0,14.0,50,0.00,,,-99.99,,2013-06-05 16:12:00,
2013-06-05 10:22:00,48.0,30.0,-100.00,SW,217,11.0,13.0,49,0.00,,,-99.99,,2013-06-05 16:22:00,
2013-06-05 10:32:00,49.0,30.0,-100.00,SW,227,14.0,17.0,47,0.00,,,-99.99,,2013-06-05 16:32:00,
2013-06-05 10:42:00,51.0,31.0,-100.00,SW,236,9.0,12.0,46,0.00,,,-99.99,,2013-06-05 16:42:00,
2013-06-05 10:53:00,49.0,31.0,-100.00,SW,219,9.0,15.0,48,0.00,,,-99.99,,2013-06-05 16:53:00,
2013-06-05 11:02:00,50.0,28.0,-100.00,SSW,213,8.0,12.0,42,0.00,,,-99.99,,2013-06-05 17:02:00,
2013-06-05 11:12:00,51.0,29.0,-100.00,WSW,240,10.0,13.0,44,0.00,,,-99.99,,2013-06-05 17:12:00,
2013-06-05 11:22:00,52.0,28.0,-100.00,South,184,12.0,17.0,40,0.00,,,-99.99,,2013-06-05 17:22:00,
2013-06-05 11:32:00,52.0,30.0,-100.00,SSW,205,12.0,15.0,43,0.00,,,-99.99,,2013-06-05 17:32:00,
2013-06-05 11:42:00,52.0,30.0,-100.00,SSW,199,9.0,12.0,44,0.00,,,-99.99,,2013-06-05 17:42:00,
2013-06-05 11:52:00,52.0,29.0,-100.00,South,186,12.0,22.0,42,0.00,,,-99.99,,2013-06-05 17:52:00,
2013-06-05 12:02:00,53.0,28.0,-100.00,South,176,15.0,17.0,39,0.00,,,-99.99,,2013-06-05 18:02:00,
2013-06-05 12:12:00,52.0,29.0,-100.00,South,185,12.0,17.0,40,0.00,,,-99.99,,2013-06-05 18:12:00,
2013-06-05 12:22:00,53.0,29.0,-100.00,WSW,247,9.0,13.0,40,0.00,,,-99.99,,2013-06-05 18:22:00,
2013-06-05 12:32:00,54.0,29.0,-100.00,SW,219,11.0,13.0,38,0.00,,,-99.99,,2013-06-05 18:32:00,
2013-06-05 12:42:00,54.0,29.0,-100.00,SSW,196,16.0,21.0,37,0.00,,,-99.99,,2013-06-05 18:42:00,
2013-06-05 12:52:00,54.0,28.0,-100.00,WSW,244,7.0,11.0,37,0.00,,,-99.99,,2013-06-05 18:52:00,
2013-06-05 13:02:00,55.0,28.0,-100.00,SW,223,7.0,14.0,35,0.00,,,-99.99,,2013-06-05 19:02:00,
2013-06-05 13:11:00,56.0,27.0,-100.00,South,188,12.0,19.0,32,0.00,,,-99.99,,2013-06-05 19:11:00,
2013-06-05 13:22:00,56.0,27.0,-100.00,South,175,6.0,15.0,33,0.00,,,-99.99,,2013-06-05 19:22:00,
2013-06-05 13:32:00,57.0,27.0,-100.00,SSW,212,14.0,18.0,32,0.00,,,-99.99,,2013-06-05 19:32:00,
2013-06-05 13:42:00,58.0,27.0,-100.00,South,181,7.0,11.0,30,0.00,,,-99.99,,2013-06-05 19:42:00,
2013-06-05 13:52:00,58.0,27.0,-100.00,SSE,167,4.0,6.0,30,0.00,,,-99.99,,2013-06-05 19:52:00,
2013-06-05 14:02:00,58.0,25.0,-100.00,SW,217,11.0,15.0,29,0.00,,,-99.99,,2013-06-05 20:02:00,
2013-06-05 14:11:00,58.0,24.0,-100.00,SSW,212,9.0,13.0,27,0.00,,,-99.99,,2013-06-05 20:11:00,
2013-06-05 14:22:00,58.0,24.0,-100.00,South,186,13.0,16.0,26,0.00,,,-99.99,,2013-06-05 20:22:00,
2013-06-05 14:32:00,58.0,23.0,-100.00,South,186,12.0,16.0,25,0.00,,,-99.99,,2013-06-05 20:32:00,
2013-06-05 14:42:00,60.0,24.0,-100.00,SSE,167,9.0,14.0,25,0.00,,,-99.99,,2013-06-05 20:42:00,
2013-06-05 14:52:00,60.0,24.0,-100.00,South,188,12.0,14.0,25,0.00,,,-99.99,,2013-06-05 20:52:00,
2013-06-05 15:02:00,61.0,27.0,-100.00,SE,127,2.0,5.0,27,0.00,,,-99.99,,2013-06-05 21:02:00,
2013-06-05 15:11:00,60.0,26.0,-100.00,WSW,258,9.0,16.0,26,0.00,,,-99.99,,2013-06-05 21:11:00,
2013-06-05 15:21:00,60.0,24.0,-100.00,SW,223,11.0,17.0,25,0.00,,,-99.99,,2013-06-05 21:21:00,
2013-06-05 15:33:00,61.0,24.0,-100.00,West,271,14.0,18.0,24,0.00,,,-99.99,,2013-06-05 21:33:00,
2013-06-05 15:43:00,62.0,22.0,-100.00,East,80,1.0,2.0,22,0.00,,,-99.99,,2013-06-05 21:43:00,
2013-06-05 15:53:00,62.0,23.0,-100.00,SW,222,14.0,18.0,22,0.00,,,-99.99,,2013-06-05 21:53:00,
2013-06-05 16:02:00,62.0,26.0,-100.00,West,265,10.0,14.0,25,0.00,,,-99.99,,2013-06-05 22:02:00,
2013-06-05 16:12:00,62.0,24.0,-100.00,WSW,240,15.0,17.0,23,0.00,,,-99.99,,2013-06-05 22:12:00,
2013-06-05 16:22:00,64.0,20.0,-100.00,West,277,1.0,3.0,19,0.00,,,-99.99,,2013-06-05 22:22:00,
2013-06-05 16:32:00,64.0,25.0,-100.00,West,277,12.0,15.0,22,0.00,,,-99.99,,2013-06-05 22:32:00,
2013-06-05 16:42:00,62.0,21.0,-100.00,West,264,6.0,12.0,20,0.00,,,-99.99,,2013-06-05 22:42:00,
2013-06-05 16:52:00,62.0,22.0,-100.00,SW,229,11.0,13.0,21,0.00,,,-99.99,,2013-06-05 22:52:00,
2013-06-05 17:02:00,62.0,20.0,-100.00,WSW,247,14.0,19.0,20,0.00,,,-99.99,,2013-06-05 23:02:00,
2013-06-05 17:11:00,62.0,18.0,-100.00,SW,229,10.0,14.0,18,0.00,,,-99.99,,2013-06-05 23:11:00,
2013-06-05 17:21:00,63.0,22.0,-100.00,WSW,253,13.0,16.0,20,0.00,,,-99.99,,2013-06-05 23:21:00,
2013-06-05 17:32:00,63.0,21.0,-100.00,SW,224,11.0,15.0,19,0.00,,,-99.99,,2013-06-05 23:32:00,
2013-06-05 17:41:00,64.0,20.0,-100.00,WSW,251,10.0,14.0,18,0.00,,,-99.99,,2013-06-05 23:41:00,
2013-06-05 17:52:00,62.0,18.0,-100.00,SW,236,12.0,16.0,18,0.00,,,-99.99,,2013-06-05 23:52:00,
2013-06-05 18:02:00,62.0,17.0,-100.00,WSW,258,14.0,17.0,17,0.00,,,-99.99,,2013-06-06 00:02:00,
2013-06-05 18:11:00,62.0,18.0,-100.00,West,274,11.0,18.0,18,0.00,,,-99.99,,2013-06-06 00:11:00,
2013-06-05 18:21:00,62.0,17.0,-100.00,WSW,250,14.0,17.0,17,0.00,,,-99.99,,2013-06-06 00:21:00,
2013-06-05 18:32:00,62.0,18.0,-100.00,WSW,240,15.0,20.0,18,0.00,,,-99.99,,2013-06-06 00:32:00,
2013-06-05 18:42:00,62.0,18.0,-100.00,WSW,239,14.0,18.0,19,0.00,,,-99.99,,2013-06-06 00:42:00,
2013-06-05 18:51:00,62.0,19.0,-100.00,WSW,247,14.0,17.0,19,0.00,,,-99.99,,2013-06-06 00:51:00,
2013-06-05 19:02:00,62.0,19.0,-100.00,WSW,257,13.0,17.0,18,0.00,,,-99.99,,2013-06-06 01:02:00,
2013-06-05 19:11:00,62.0,18.0,-100.00,WSW,241,14.0,19.0,18,0.00,,,-99.99,,2013-06-06 01:11:00,
2013-06-05 19:21:00,61.0,19.0,-100.00,SW,230,12.0,15.0,19,0.00,,,-99.99,,2013-06-06 01:21:00,
2013-06-05 19:32:00,61.0,18.0,-100.00,WSW,239,11.0,14.0,19,0.00,,,-99.99,,2013-06-06 01:32:00,
2013-06-05 19:42:00,61.0,20.0,-100.00,West,264,12.0,17.0,20,0.00,,,-99.99,,2013-06-06 01:42:00,
2013-06-05 19:52:00,60.0,29.0,-100.00,North,0,3.0,8.0,30,0.00,,,-99.99,,2013-06-06 01:52:00,
2013-06-05 20:01:00,57.0,30.0,-100.00,North,3,7.0,9.0,35,0.00,,,-99.99,,2013-06-06 02:01:00,
2013-06-05 20:11:00,57.0,31.0,-100.00,NNE,24,7.0,9.0,37,0.00,,,-99.99,,2013-06-06 02:11:00,
2013-06-05 20:22:00,56.0,31.0,-100.00,NNE,18,7.0,8.0,39,0.00,,,-99.99,,2013-06-06 02:22:00,
2013-06-05 20:32:00,55.0,30.0,-100.00,NNE,32,9.0,11.0,38,0.00,,,-99.99,,2013-06-06 02:32:00,
2013-06-05 20:42:00,55.0,30.0,-100.00,NNE,32,9.0,11.0,38,0.00,,,-99.99,,2013-06-06 02:42:00,
2013-06-05 21:02:00,53.0,30.0,-100.00,NNE,24,7.0,8.0,42,0.00,,,-99.99,,2013-06-06 03:02:00,
2013-06-05 21:11:00,50.0,31.0,-100.00,North,6,6.0,6.0,47,0.00,,,-99.99,,2013-06-06 03:11:00,
2013-06-05 21:22:00,50.0,31.0,-100.00,NNW,333,6.0,7.0,47,0.00,,,-99.99,,2013-06-06 03:22:00,
2013-06-05 21:33:00,51.0,29.0,-100.00,North,356,7.0,9.0,44,0.00,,,-99.99,,2013-06-06 03:33:00,
2013-06-05 21:43:00,51.0,29.0,-100.00,North,4,4.0,6.0,43,0.00,,,-99.99,,2013-06-06 03:43:00,
2013-06-05 21:52:00,50.0,29.0,-100.00,NNE,27,4.0,6.0,43,0.00,,,-99.99,,2013-06-06 03:52:00,
2013-06-05 22:02:00,49.0,29.0,-100.00,NNE,27,6.0,7.0,46,0.00,,,-99.99,,2013-06-06 04:02:00,
2013-06-05 22:13:00,49.0,28.0,-100.00,NNE,16,9.0,11.0,43,0.00,,,-99.99,,2013-06-06 04:13:00,
2013-06-05 22:22:00,50.0,28.0,-100.00,North,8,9.0,10.0,42,0.00,,,-99.99,,2013-06-06 04:22:00,
2013-06-05 22:33:00,48.0,28.0,-100.00,North,354,7.0,8.0,45,0.00,,,-99.99,,2013-06-06 04:33:00,
2013-06-05 22:42:00,48.0,28.0,-100.00,North,359,9.0,10.0,44,0.00,,,-99.99,,2013-06-06 04:42:00,
2013-06-05 22:52:00,49.0,28.0,-100.00,North,350,9.0,9.0,44,0.00,,,-99.99,,2013-06-06 04:52:00,
2013-06-05 23:02:00,50.0,28.0,-100.00,NNW,347,8.0,9.0,42,0.00,,,-99.99,,2013-06-06 05:02:00,
2013-06-05 23:12:00,50.0,27.0,-100.00,NNW,347,7.0,9.0,42,0.00,,,-99.99,,2013-06-06 05:12:00,
2013-06-05 23:22:00,48.0,27.0,-100.00,NNW,347,9.0,11.0,44,0.00,,,-99.99,,2013-06-06 05:22:00,
2013-06-05 23:32:00,48.0,27.0,-100.00,NNW,340,7.0,8.0,44,0.00,,,-99.99,,2013-06-06 05:32:00,
2013-06-05 23:41:00,47.0,26.0,-100.00,NNW,339,7.0,9.0,43,0.00,,,-99.99,,2013-06-06 05:41:00,
2013-06-05 23:52:00,48.0,26.0,-100.00,North,353,8.0,9.0,42,0.00,,,-99.99,,2013-06-06 05:52:00,